createdAt,value
2022-09-06T00:01:11.626Z,2.40
2022-09-06T00:05:20.027Z,2.70
2022-09-06T00:09:27.911Z,2.40
2022-09-06T00:13:37.597Z,2.40
2022-09-06T00:17:46.702Z,2.60
2022-09-06T00:21:54.600Z,2.20
2022-09-06T00:26:07.447Z,2.50
2022-09-06T00:30:16.513Z,2.70
2022-09-06T00:34:24.510Z,2.60
2022-09-06T00:38:32.212Z,2.70
2022-09-06T00:42:40.413Z,2.70
2022-09-06T00:46:49.897Z,2.70
2022-09-06T00:50:59.057Z,2.50
2022-09-06T00:55:07.976Z,2.70
2022-09-06T00:59:16.259Z,2.30
2022-09-06T01:03:25.552Z,2.30
2022-09-06T01:07:42.069Z,2.20
2022-09-06T01:12:00.648Z,2.20
2022-09-06T01:16:15.005Z,2.40
2022-09-06T01:20:35.221Z,2.40
2022-09-06T01:25:08.922Z,2.20
2022-09-06T01:29:22.299Z,2.40
2022-09-06T01:33:34.071Z,2.40
2022-09-06T01:37:42.365Z,2.10
2022-09-06T01:41:50.350Z,2.30
2022-09-06T01:46:05.409Z,2.80
2022-09-06T01:50:45.629Z,2.40
2022-09-06T01:55:07.719Z,2.50
2022-09-06T01:59:38.539Z,2.40
2022-09-06T02:03:50.104Z,2.50
2022-09-06T02:08:01.950Z,2.30
2022-09-06T02:12:13.471Z,2.40
2022-09-06T02:16:26.831Z,2.40
2022-09-06T02:20:36.907Z,2.60
2022-09-06T02:24:45.743Z,2.30
2022-09-06T02:28:53.870Z,2.30
2022-09-06T02:33:03.847Z,2.30
2022-09-06T02:37:12.456Z,2.30
2022-09-06T02:41:22.939Z,2.50
2022-09-06T02:45:33.619Z,2.20
2022-09-06T02:49:41.580Z,2.50
2022-09-06T02:53:49.445Z,2.70
2022-09-06T02:57:57.670Z,2.40
2022-09-06T03:02:05.697Z,2.10
2022-09-06T03:06:14.124Z,2.30
2022-09-06T03:10:22.299Z,2.20
2022-09-06T03:14:30.660Z,2.20
2022-09-06T03:18:38.500Z,2.10
2022-09-06T03:22:47.197Z,2.20
2022-09-06T03:26:55.952Z,2.10
2022-09-06T03:31:03.744Z,2.20
2022-09-06T03:35:13.148Z,2.10
2022-09-06T03:39:21.406Z,2.20
2022-09-06T03:43:30.221Z,2.20
2022-09-06T03:47:38.534Z,2.00
2022-09-06T03:51:47.088Z,2.00
2022-09-06T03:55:56.233Z,2.10
2022-09-06T04:00:05.582Z,2.10
2022-09-06T04:04:13.220Z,2.10
2022-09-06T04:08:21.365Z,1.90
2022-09-06T04:12:29.534Z,2.10
2022-09-06T04:16:37.818Z,2.10
2022-09-06T04:20:46.802Z,2.10
2022-09-06T04:24:54.669Z,2.30
2022-09-06T04:29:03.004Z,2.10
2022-09-06T04:33:10.788Z,2.00
2022-09-06T04:37:20.712Z,2.00
2022-09-06T04:41:29.389Z,2.20
2022-09-06T04:45:44.862Z,2.20
2022-09-06T04:49:55.307Z,2.90
2022-09-06T04:54:04.746Z,1.90
2022-09-06T04:58:17.239Z,2.20
2022-09-06T05:02:29.492Z,1.90
2022-09-06T05:06:41.714Z,2.40
2022-09-06T05:10:49.941Z,1.90
2022-09-06T05:15:01.769Z,2.20
2022-09-06T05:19:09.886Z,2.10
2022-09-06T05:23:21.154Z,2.10
2022-09-06T05:27:34.919Z,2.20
2022-09-06T05:31:50.299Z,2.00
2022-09-06T05:36:00.723Z,2.10
2022-09-06T05:40:13.402Z,2.70
2022-09-06T05:44:28.557Z,2.00
2022-09-06T05:48:41.752Z,2.10
2022-09-06T05:52:59.499Z,2.30
2022-09-06T05:57:07.305Z,2.20
2022-09-06T06:01:22.544Z,2.20
2022-09-06T06:05:37.791Z,2.40
2022-09-06T06:09:47.787Z,2.50
2022-09-06T06:14:03.789Z,2.80
2022-09-06T06:18:11.636Z,2.20
2022-09-06T06:22:19.750Z,1.90
2022-09-06T06:26:35.288Z,2.40
2022-09-06T06:30:45.496Z,2.40
2022-09-06T06:35:02.235Z,2.30
2022-09-06T06:39:13.731Z,2.50
2022-09-06T06:43:24.792Z,2.60
2022-09-06T06:47:37.087Z,2.30
2022-09-06T06:51:51.149Z,2.40
2022-09-06T06:56:14.245Z,2.60
2022-09-06T07:00:25.170Z,2.80
2022-09-06T07:04:36.703Z,2.80
2022-09-06T07:08:49.358Z,3.00
2022-09-06T07:13:00.179Z,2.50
2022-09-06T07:17:10.109Z,2.70
2022-09-06T07:21:42.523Z,2.80
2022-09-06T07:25:56.941Z,2.70
2022-09-06T07:30:15.228Z,2.60
2022-09-06T07:34:30.190Z,2.90
2022-09-06T07:38:45.060Z,2.50
2022-09-06T07:42:59.451Z,2.70
2022-09-06T07:51:37.093Z,3.00
2022-09-06T07:55:44.684Z,2.50
2022-09-06T07:59:58.154Z,2.90
2022-09-06T08:04:13.122Z,2.60
2022-09-06T08:13:03.498Z,2.90
2022-09-06T08:17:12.756Z,2.90
2022-09-06T08:21:25.268Z,2.80
2022-09-06T08:25:40.918Z,2.70
2022-09-06T08:29:55.448Z,2.70
2022-09-06T08:34:06.003Z,2.80
2022-09-06T08:38:14.940Z,2.80
2022-09-06T08:42:22.819Z,2.70
2022-09-06T08:46:33.906Z,2.80
2022-09-06T08:50:43.593Z,2.80
2022-09-06T08:54:58.624Z,3.20
2022-09-06T08:59:09.471Z,2.70
2022-09-06T09:03:24.067Z,2.60
2022-09-06T09:08:01.751Z,2.90
2022-09-06T09:12:13.583Z,2.90
2022-09-06T09:16:31.302Z,3.00
2022-09-06T09:20:45.514Z,3.30
2022-09-06T09:24:57.323Z,3.00
2022-09-06T09:29:12.706Z,3.30
2022-09-06T09:33:30.225Z,2.90
2022-09-06T09:41:53.730Z,2.80
2022-09-06T09:46:16.889Z,2.70
2022-09-06T09:50:30.317Z,3.00
2022-09-06T09:54:39.874Z,3.00
2022-09-06T09:58:47.499Z,3.10
2022-09-06T10:02:55.970Z,2.60
2022-09-06T10:07:15.458Z,3.10
2022-09-06T10:11:41.848Z,3.30
2022-09-06T10:15:50.599Z,3.00
2022-09-06T10:19:58.915Z,3.00
2022-09-06T10:28:36.486Z,3.20
2022-09-06T10:32:53.879Z,3.40
2022-09-06T10:37:09.987Z,3.40
2022-09-06T10:41:34.469Z,3.50
2022-09-06T10:45:48.731Z,3.30
2022-09-06T10:49:59.268Z,3.20
2022-09-06T10:54:13.065Z,3.20
2022-09-06T11:07:38.232Z,3.30
2022-09-06T11:11:49.044Z,3.20
2022-09-06T11:16:01.656Z,3.30
2022-09-06T11:20:13.361Z,2.80
2022-09-06T11:24:30.450Z,3.10
2022-09-06T11:28:41.096Z,3.40
2022-09-06T11:32:50.499Z,3.30
2022-09-06T11:37:00.173Z,3.20
2022-09-06T11:41:16.913Z,3.00
2022-09-06T11:45:40.891Z,3.20
2022-09-06T11:49:49.792Z,3.10
2022-09-06T11:54:25.257Z,2.90
2022-09-06T11:58:48.283Z,2.90
2022-09-06T12:07:24.631Z,2.40
2022-09-06T12:11:39.712Z,2.60
2022-09-06T12:15:56.742Z,3.00
2022-09-06T12:20:11.380Z,2.50
2022-09-06T12:24:54.537Z,2.90
2022-09-06T12:29:02.752Z,2.70
2022-09-06T12:33:13.375Z,2.80
2022-09-06T12:37:34.243Z,2.70
2022-09-06T12:41:44.683Z,3.30
2022-09-06T12:45:53.671Z,3.00
2022-09-06T12:50:18.935Z,2.40
2022-09-06T12:54:28.968Z,2.90
2022-09-06T12:58:36.961Z,2.70
2022-09-06T13:02:53.382Z,2.60
2022-09-06T13:07:04.622Z,2.20
2022-09-06T13:11:14.655Z,2.80
2022-09-06T13:15:25.400Z,2.60
2022-09-06T13:19:38.277Z,2.90
2022-09-06T13:23:48.587Z,2.50
2022-09-06T13:27:59.083Z,2.70
2022-09-06T13:32:09.968Z,2.30
2022-09-06T13:36:26.265Z,2.60
2022-09-06T13:41:10.591Z,2.60
2022-09-06T13:45:26.329Z,2.60
2022-09-06T13:49:35.898Z,2.60
2022-09-06T13:53:43.956Z,2.40
2022-09-06T13:57:51.972Z,2.50
2022-09-06T14:02:04.982Z,2.50
2022-09-06T14:06:13.711Z,2.80
2022-09-06T14:10:24.269Z,2.90
2022-09-06T14:14:31.697Z,2.40
2022-09-06T14:18:40.643Z,2.50
2022-09-06T14:22:48.517Z,3.00
2022-09-06T14:26:56.479Z,3.00
2022-09-06T14:31:12.962Z,2.50
2022-09-06T14:35:20.681Z,2.90
2022-09-06T14:39:28.714Z,2.70
2022-09-06T14:43:37.146Z,2.50
2022-09-06T14:47:45.926Z,2.80
2022-09-06T14:51:55.024Z,3.00
2022-09-06T14:56:06.327Z,2.60
2022-09-06T15:00:16.069Z,2.80
2022-09-06T15:04:23.939Z,3.00
2022-09-06T15:08:31.238Z,2.90
2022-09-06T15:12:39.463Z,2.90
2022-09-06T15:16:53.360Z,3.00
2022-09-06T15:21:13.674Z,2.50
2022-09-06T15:25:21.276Z,2.70
2022-09-06T15:29:29.182Z,2.90
2022-09-06T15:33:38.384Z,2.90
2022-09-06T15:37:46.386Z,2.70
2022-09-06T15:41:54.922Z,2.60
2022-09-06T15:46:02.127Z,2.50
2022-09-06T15:50:11.253Z,2.70
2022-09-06T15:54:40.247Z,2.50
2022-09-06T15:58:48.546Z,2.40
2022-09-06T16:02:58.389Z,2.70
2022-09-06T16:07:06.806Z,2.60
2022-09-06T16:11:16.016Z,2.70
2022-09-06T16:15:23.943Z,2.60
2022-09-06T16:19:31.754Z,2.50
2022-09-06T16:23:40.336Z,2.60
2022-09-06T16:27:47.955Z,2.30
2022-09-06T16:32:00.016Z,2.40
2022-09-06T16:36:11.344Z,2.60
2022-09-06T16:40:19.393Z,2.80
2022-09-06T16:44:27.257Z,2.50
2022-09-06T16:48:35.076Z,2.50
2022-09-06T16:52:43.051Z,2.20
2022-09-06T16:56:51.062Z,2.70
2022-09-06T17:01:01.199Z,2.20
2022-09-06T17:05:11.456Z,2.40
2022-09-06T17:09:21.227Z,2.10
2022-09-06T17:13:29.555Z,2.50
2022-09-06T17:17:37.590Z,2.20
2022-09-06T17:21:45.747Z,2.50
2022-09-06T17:25:53.966Z,2.70
2022-09-06T17:30:01.782Z,2.40
2022-09-06T17:34:09.601Z,2.30
2022-09-06T17:38:18.486Z,2.20
2022-09-06T17:42:27.050Z,2.40
2022-09-06T17:46:35.104Z,2.60
2022-09-06T17:50:43.511Z,2.20
2022-09-06T17:54:51.137Z,2.40
2022-09-06T17:59:01.423Z,2.20
2022-09-06T18:03:11.076Z,2.10
2022-09-06T18:07:19.990Z,2.00
2022-09-06T18:11:29.287Z,2.20
2022-09-06T18:15:42.240Z,2.30
2022-09-06T18:19:49.698Z,2.20
2022-09-06T18:23:59.403Z,2.30
2022-09-06T18:28:09.861Z,2.60
2022-09-06T18:32:18.222Z,2.30
2022-09-06T18:36:31.152Z,2.60
2022-09-06T18:40:41.225Z,2.30
2022-09-06T18:44:48.986Z,2.50
2022-09-06T18:48:57.196Z,2.80
2022-09-06T18:53:04.749Z,2.00
2022-09-06T18:57:15.529Z,2.20
2022-09-06T19:01:23.025Z,2.10
2022-09-06T19:05:31.611Z,2.30
2022-09-06T19:09:39.474Z,2.10
2022-09-06T19:13:51.141Z,2.10
2022-09-06T19:17:59.105Z,2.20
2022-09-06T19:22:07.370Z,2.20
2022-09-06T19:26:17.872Z,1.90
2022-09-06T19:30:25.257Z,2.00
2022-09-06T19:34:33.637Z,1.80
2022-09-06T19:39:02.103Z,2.10
2022-09-06T19:43:09.638Z,2.10
2022-09-06T19:47:18.057Z,2.00
2022-09-06T19:51:26.215Z,1.90
2022-09-06T19:55:35.816Z,1.90
2022-09-06T19:59:45.142Z,2.00
2022-09-06T20:03:52.735Z,1.90
2022-09-06T20:08:00.759Z,1.80
2022-09-06T20:12:09.751Z,2.10
2022-09-06T20:16:20.414Z,2.00
2022-09-06T20:20:28.767Z,1.80
2022-09-06T20:24:38.140Z,2.00
2022-09-06T20:28:46.183Z,2.10
2022-09-06T20:32:53.874Z,2.10
2022-09-06T20:37:01.905Z,2.10
2022-09-06T20:41:11.074Z,2.20
2022-09-06T20:45:19.795Z,2.20
2022-09-06T20:49:27.908Z,2.20
2022-09-06T20:53:37.790Z,2.20
2022-09-06T20:57:47.800Z,2.20
2022-09-06T21:01:55.484Z,1.90
2022-09-06T21:06:07.700Z,2.40
2022-09-06T21:10:15.709Z,2.20
2022-09-06T21:14:23.366Z,2.10
2022-09-06T21:18:31.664Z,2.30
2022-09-06T21:22:39.272Z,2.20
2022-09-06T21:26:46.841Z,2.20
2022-09-06T21:31:04.825Z,2.30
2022-09-06T21:35:12.966Z,2.10
2022-09-06T21:39:20.727Z,2.60
2022-09-06T21:43:28.523Z,2.20
2022-09-06T21:47:36.452Z,2.40
2022-09-06T21:51:44.703Z,2.30
2022-09-06T21:55:52.926Z,2.40
2022-09-06T22:00:01.046Z,2.50
2022-09-06T22:04:14.752Z,2.40
2022-09-06T22:08:22.976Z,2.40
2022-09-06T22:12:31.291Z,2.30
2022-09-06T22:16:40.892Z,2.20
2022-09-06T22:20:48.364Z,2.50
2022-09-06T22:24:55.903Z,2.50
2022-09-06T22:29:06.135Z,2.60
2022-09-06T22:33:14.083Z,2.90
2022-09-06T22:37:22.524Z,2.20
2022-09-06T22:41:31.770Z,2.40
2022-09-06T22:45:40.825Z,2.80
2022-09-06T22:49:49.453Z,2.40
2022-09-06T22:53:57.665Z,2.80
2022-09-06T22:58:06.240Z,2.50
2022-09-06T23:02:13.976Z,2.60
2022-09-06T23:06:21.881Z,3.00
2022-09-06T23:10:30.648Z,3.00
2022-09-06T23:14:38.358Z,2.80
2022-09-06T23:18:45.638Z,2.70
2022-09-06T23:22:53.206Z,2.80
2022-09-06T23:27:02.444Z,2.50
2022-09-06T23:31:12.060Z,2.90
2022-09-06T23:35:21.135Z,3.10
2022-09-06T23:39:29.798Z,2.70
2022-09-06T23:43:38.285Z,2.80
2022-09-06T23:47:46.686Z,2.80
2022-09-06T23:51:56.180Z,2.80
2022-09-06T23:56:04.866Z,3.20
